createdAt,value
2023-01-30T00:00:25.668Z,101524.06
2023-01-30T00:02:51.313Z,101546.94
2023-01-30T00:05:16.967Z,101535.09
2023-01-30T00:07:42.628Z,101549.72
2023-01-30T00:10:09.066Z,101551.63
2023-01-30T00:12:34.720Z,101546.13
2023-01-30T00:15:00.371Z,101535.09
2023-01-30T00:17:26.016Z,101532.34
2023-01-30T00:19:51.652Z,101524.91
2023-01-30T00:22:17.309Z,101525.75
2023-01-30T00:24:43.081Z,101524.06
2023-01-30T00:27:08.782Z,101527.66
2023-01-30T00:29:34.414Z,101520.22
2023-01-30T00:32:00.135Z,101521.31
2023-01-30T00:34:25.822Z,101508.38
2023-01-30T00:37:06.402Z,101504.78
2023-01-30T00:39:33.337Z,101503.09
2023-01-30T00:42:18.877Z,101515.53
2023-01-30T00:45:04.413Z,101490.16
2023-01-30T00:47:30.293Z,101476.38
2023-01-30T00:49:55.930Z,101460.72
2023-01-30T00:52:21.567Z,101464.31
2023-01-30T00:54:47.237Z,101469.81
2023-01-30T00:57:12.875Z,101470.03
2023-01-30T00:59:38.514Z,101469.81
2023-01-30T01:02:04.191Z,101461.78
2023-01-30T01:04:29.840Z,101452.44
2023-01-30T01:06:55.495Z,101449.94
2023-01-30T01:09:21.130Z,101450.53
2023-01-30T01:11:46.768Z,101452.69
2023-01-30T01:14:12.412Z,101462.59
2023-01-30T01:16:38.408Z,101453.50
2023-01-30T01:19:04.118Z,101443.59
2023-01-30T01:21:29.829Z,101434.22
2023-01-30T01:23:57.987Z,101435.06
2023-01-30T01:26:24.087Z,101425.97
2023-01-30T01:28:53.667Z,101426.78
2023-01-30T01:31:19.399Z,101436.16
2023-01-30T01:33:45.078Z,101429.53
2023-01-30T01:36:10.810Z,101424.03
2023-01-30T01:38:38.103Z,101426.78
2023-01-30T01:41:09.224Z,101420.47
2023-01-30T01:43:38.138Z,101431.47
2023-01-30T01:46:09.770Z,101421.28
2023-01-30T01:48:40.544Z,101426.78
2023-01-30T01:51:30.751Z,101418.53
2023-01-30T01:54:09.187Z,101413.03
2023-01-30T01:56:35.076Z,101421.28
2023-01-30T01:59:07.213Z,101425.13
2023-01-30T02:01:32.997Z,101416.88
2023-01-30T02:04:02.478Z,101405.84
2023-01-30T02:06:28.723Z,101403.94
2023-01-30T02:08:58.672Z,101399.25
2023-01-30T02:11:31.519Z,101387.41
2023-01-30T02:13:57.230Z,101392.06
2023-01-30T02:16:22.925Z,101386.56
2023-01-30T02:18:48.844Z,101365.34
2023-01-30T02:21:54.292Z,101376.38
2023-01-30T02:24:36.149Z,101367.03
2023-01-30T02:27:14.827Z,101366.19
2023-01-30T02:30:06.300Z,101358.78
2023-01-30T02:33:11.689Z,101354.34
2023-01-30T02:35:46.156Z,101346.06
2023-01-30T02:38:23.473Z,101348.00
2023-01-30T02:41:01.926Z,101335.06
2023-01-30T02:43:33.395Z,101341.38
2023-01-30T02:46:04.954Z,101324.03
2023-01-30T02:48:53.030Z,101325.97
2023-01-30T02:51:22.343Z,101326.78
2023-01-30T02:53:49.190Z,101319.34
2023-01-30T02:56:14.862Z,101309.44
2023-01-30T02:58:45.521Z,101309.44
2023-01-30T03:01:51.014Z,101310.25
2023-01-30T03:04:55.026Z,101314.94
2023-01-30T03:08:00.477Z,101307.50
2023-01-30T03:10:36.517Z,101294.00
2023-01-30T03:13:10.914Z,101304.75
2023-01-30T03:15:45.230Z,101298.69
2023-01-30T03:18:11.001Z,101298.41
2023-01-30T03:20:38.188Z,101292.91
2023-01-30T03:23:03.871Z,101288.22
2023-01-30T03:25:30.192Z,101298.41
2023-01-30T03:27:55.931Z,101288.22
2023-01-30T03:30:24.371Z,101270.88
2023-01-30T03:32:49.933Z,101284.63
2023-01-30T03:35:17.023Z,101289.06
2023-01-30T03:37:44.357Z,101294.56
2023-01-30T03:40:11.863Z,101279.13
2023-01-30T03:42:37.513Z,101274.44
2023-01-30T03:45:03.288Z,101276.38
2023-01-30T03:47:28.929Z,101255.16
2023-01-30T03:49:54.561Z,101246.06
2023-01-30T03:52:20.215Z,101248.00
2023-01-30T03:54:45.854Z,101248.00
2023-01-30T03:57:11.502Z,101243.06
2023-01-30T03:59:37.136Z,101240.56
2023-01-30T04:02:02.877Z,101235.06
2023-01-30T04:04:28.546Z,101240.56
2023-01-30T04:06:54.198Z,101239.72
2023-01-30T04:09:19.846Z,101233.13
2023-01-30T04:11:45.498Z,101228.72
2023-01-30T04:14:11.158Z,101231.47
2023-01-30T04:16:36.883Z,101228.72
2023-01-30T04:19:02.532Z,101224.84
2023-01-30T04:21:28.174Z,101222.94
2023-01-30T04:23:53.826Z,101222.09
2023-01-30T04:26:19.615Z,101222.94
2023-01-30T04:28:45.289Z,101212.19
2023-01-30T04:31:11.046Z,101220.44
2023-01-30T04:33:39.027Z,101202.00
2023-01-30T04:36:06.049Z,101205.84
2023-01-30T04:38:32.818Z,101220.44
2023-01-30T04:40:59.047Z,101213.84
2023-01-30T04:43:26.171Z,101213.84
2023-01-30T04:45:51.963Z,101224.84
2023-01-30T04:48:18.967Z,101218.53
2023-01-30T04:50:47.763Z,101207.50
2023-01-30T04:53:13.987Z,101205.56
2023-01-30T04:55:39.622Z,101198.41
2023-01-30T04:58:05.263Z,101210.25
2023-01-30T05:00:31.090Z,101213.84
2023-01-30T05:02:56.807Z,101205.56
2023-01-30T05:05:23.129Z,101208.59
2023-01-30T05:07:49.149Z,101209.44
2023-01-30T05:10:15.418Z,101208.59
2023-01-30T05:12:41.069Z,101214.13
2023-01-30T05:15:07.301Z,101214.94
2023-01-30T05:17:33.842Z,101207.50
2023-01-30T05:19:59.550Z,101200.34
2023-01-30T05:22:25.198Z,101203.94
2023-01-30T05:24:51.085Z,101192.91
2023-01-30T05:27:16.964Z,101199.25
2023-01-30T05:29:42.649Z,101201.16
2023-01-30T05:32:12.026Z,101211.09
2023-01-30T05:34:37.773Z,101208.34
2023-01-30T05:37:03.418Z,101206.69
2023-01-30T05:39:29.067Z,101200.34
2023-01-30T05:41:54.729Z,101203.94
2023-01-30T05:44:20.383Z,101204.75
2023-01-30T05:46:46.063Z,101194.84
2023-01-30T05:49:11.746Z,101196.75
2023-01-30T05:51:37.412Z,101188.22
2023-01-30T05:54:03.173Z,101189.88
2023-01-30T05:56:32.359Z,101192.63
2023-01-30T05:59:00.013Z,101185.47
2023-01-30T06:01:26.300Z,101185.22
2023-01-30T06:03:52.452Z,101184.38
2023-01-30T06:06:18.455Z,101193.72
2023-01-30T06:08:44.492Z,101177.78
2023-01-30T06:11:12.570Z,101179.97
2023-01-30T06:13:38.451Z,101191.81
2023-01-30T06:16:06.187Z,101188.22
2023-01-30T06:18:31.832Z,101196.47
2023-01-30T06:20:57.534Z,101196.47
2023-01-30T06:23:23.210Z,101206.69
2023-01-30T06:25:49.803Z,101220.44
2023-01-30T06:28:16.241Z,101207.50
2023-01-30T06:30:42.180Z,101214.94
2023-01-30T06:33:08.225Z,101212.19
2023-01-30T06:35:33.961Z,101222.09
2023-01-30T06:37:59.733Z,101211.38
2023-01-30T06:40:25.439Z,101217.69
2023-01-30T06:42:51.242Z,101219.63
2023-01-30T06:45:18.307Z,101213.59
2023-01-30T06:47:49.163Z,101210.84
2023-01-30T06:50:17.048Z,101208.09
2023-01-30T06:52:44.411Z,101226.53
2023-01-30T06:55:11.845Z,101237.56
2023-01-30T06:57:37.674Z,101230.13
2023-01-30T07:00:05.076Z,101243.63
2023-01-30T07:02:33.992Z,101243.63
2023-01-30T07:05:00.156Z,101230.69
2023-01-30T07:07:25.804Z,101230.69
2023-01-30T07:10:06.966Z,101235.91
2023-01-30T07:12:33.822Z,101234.00
2023-01-30T07:14:59.463Z,101232.09
2023-01-30T07:17:25.095Z,101238.41
2023-01-30T07:19:50.928Z,101223.00
2023-01-30T07:22:16.587Z,101219.13
2023-01-30T07:24:42.356Z,101224.38
2023-01-30T07:27:09.304Z,101234.56
2023-01-30T07:29:35.727Z,101246.44
2023-01-30T07:32:01.680Z,101252.41
2023-01-30T07:34:27.359Z,101237.59
2023-01-30T07:36:52.995Z,101238.97
2023-01-30T07:39:18.658Z,101233.44
2023-01-30T07:41:44.318Z,101235.97
2023-01-30T07:44:10.056Z,101236.53
2023-01-30T07:46:36.145Z,101248.38
2023-01-30T07:49:02.023Z,101242.03
2023-01-30T07:51:27.702Z,101246.44
2023-01-30T07:53:53.372Z,101247.28
2023-01-30T07:56:21.188Z,101249.19
2023-01-30T07:58:47.369Z,101258.88
2023-01-30T08:01:13.434Z,101258.06
2023-01-30T08:03:39.257Z,101249.78
2023-01-30T08:06:05.546Z,101248.69
2023-01-30T08:08:31.212Z,101261.63
2023-01-30T08:10:56.851Z,101266.88
2023-01-30T08:13:22.531Z,101264.94
2023-01-30T08:15:48.179Z,101261.94
2023-01-30T08:18:13.835Z,101272.97
2023-01-30T08:20:39.506Z,101258.91
2023-01-30T08:23:05.190Z,101258.91
2023-01-30T08:25:30.860Z,101257.25
2023-01-30T08:27:58.480Z,101258.91
2023-01-30T08:30:24.193Z,101265.53
2023-01-30T08:32:49.872Z,101285.38
2023-01-30T08:35:15.537Z,101290.06
2023-01-30T08:37:41.378Z,101297.25
2023-01-30T08:40:08.037Z,101292.56
2023-01-30T08:42:33.787Z,101296.38
2023-01-30T08:44:59.435Z,101298.06
2023-01-30T08:47:25.218Z,101293.13
2023-01-30T08:49:52.008Z,101291.72
2023-01-30T08:52:18.532Z,101297.78
2023-01-30T08:54:44.216Z,101301.91
2023-01-30T08:57:09.980Z,101307.16
2023-01-30T08:59:35.624Z,101328.41
2023-01-30T09:02:01.273Z,101320.50
2023-01-30T09:04:29.391Z,101326.56
2023-01-30T09:06:55.036Z,101338.13
2023-01-30T09:09:20.692Z,101322.94
2023-01-30T09:11:47.390Z,101338.66
2023-01-30T09:14:15.568Z,101340.81
2023-01-30T09:16:41.241Z,101344.44
2023-01-30T09:19:06.871Z,101330.91
2023-01-30T09:21:32.687Z,101322.63
2023-01-30T09:23:58.414Z,101308.03
2023-01-30T09:26:24.125Z,101306.09
2023-01-30T09:28:49.810Z,101312.44
2023-01-30T09:31:15.566Z,101311.91
2023-01-30T09:33:41.226Z,101319.91
2023-01-30T09:36:07.469Z,101311.41
2023-01-30T09:38:33.134Z,101314.41
2023-01-30T09:43:52.905Z,101336.66
2023-01-30T09:46:41.910Z,101328.41
2023-01-30T09:49:43.593Z,101326.13
2023-01-30T09:52:39.729Z,101339.66
2023-01-30T09:55:23.445Z,101345.19
2023-01-30T09:57:50.773Z,101343.72
2023-01-30T10:00:37.248Z,101343.53
2023-01-30T10:03:10.529Z,101361.22
2023-01-30T10:05:48.457Z,101354.88
2023-01-30T10:08:49.896Z,101343.59
2023-01-30T10:11:47.152Z,101350.78
2023-01-30T10:14:36.610Z,101361.81
2023-01-30T10:17:42.119Z,101364.56
2023-01-30T10:20:34.967Z,101360.72
2023-01-30T10:23:24.835Z,101368.16
2023-01-30T10:25:54.398Z,101368.16
2023-01-30T10:28:30.585Z,101368.16
2023-01-30T10:31:03.404Z,101373.81
2023-01-30T10:33:34.916Z,101373.34
2023-01-30T10:36:11.570Z,101358.16
2023-01-30T10:38:44.168Z,101352.34
2023-01-30T10:41:19.354Z,101362.59
2023-01-30T10:43:52.553Z,101360.66
2023-01-30T10:46:34.110Z,101364.81
2023-01-30T10:49:19.203Z,101373.66
2023-01-30T10:52:05.294Z,101380.69
2023-01-30T10:57:17.214Z,101384.94
2023-01-30T10:59:53.627Z,101381.94
2023-01-30T11:05:14.518Z,101381.38
2023-01-30T11:07:41.458Z,101380.31
2023-01-30T11:10:16.123Z,101373.09
2023-01-30T11:12:41.789Z,101375.03
2023-01-30T11:15:08.253Z,101376.72
2023-01-30T11:17:41.006Z,101369.53
2023-01-30T11:20:13.799Z,101383.06
2023-01-30T11:22:45.906Z,101380.31
2023-01-30T11:25:18.528Z,101383.31
2023-01-30T11:27:51.543Z,101380.31
2023-01-30T11:30:19.608Z,101379.47
2023-01-30T11:32:47.645Z,101378.94
2023-01-30T11:37:47.828Z,101383.09
2023-01-30T11:40:24.491Z,101393.53
2023-01-30T11:42:52.273Z,101397.16
2023-01-30T11:45:18.930Z,101399.91
2023-01-30T11:47:57.917Z,101392.72
2023-01-30T11:50:35.313Z,101401.81
2023-01-30T11:53:14.921Z,101391.88
2023-01-30T11:55:44.972Z,101391.66
2023-01-30T11:58:15.646Z,101380.88
2023-01-30T12:00:43.047Z,101396.31
2023-01-30T12:03:11.989Z,101388.88
2023-01-30T12:05:41.725Z,101388.03
2023-01-30T12:08:41.944Z,101388.03
2023-01-30T12:11:24.706Z,101391.47
2023-01-30T12:13:51.212Z,101377.25
2023-01-30T12:16:22.073Z,101397.41
2023-01-30T12:18:58.872Z,101389.13
2023-01-30T12:21:36.129Z,101388.31
2023-01-30T12:24:19.175Z,101397.41
2023-01-30T12:26:47.328Z,101380.63
2023-01-30T12:29:32.653Z,101386.13
2023-01-30T12:32:05.937Z,101389.44
2023-01-30T12:34:31.638Z,101385.84
2023-01-30T12:37:07.756Z,101374.00
2023-01-30T12:39:46.927Z,101380.34
2023-01-30T12:42:52.456Z,101382.28
2023-01-30T12:45:24.713Z,101380.34
2023-01-30T12:53:25.817Z,101394.13
2023-01-30T12:56:16.960Z,101390.53
2023-01-30T12:59:01.414Z,101394.97
2023-01-30T13:02:06.862Z,101395.78
2023-01-30T13:04:56.479Z,101399.38
2023-01-30T13:07:42.040Z,101421.19
2023-01-30T13:10:16.700Z,101405.72
2023-01-30T13:12:48.778Z,101412.91
2023-01-30T13:15:22.154Z,101410.97
2023-01-30T13:17:59.209Z,101415.66
2023-01-30T13:20:47.721Z,101419.50
2023-01-30T13:23:38.082Z,101429.44
2023-01-30T13:26:08.380Z,101434.97
2023-01-30T13:28:42.678Z,101437.72
2023-01-30T13:31:11.550Z,101451.50
2023-01-30T13:33:40.394Z,101450.66
2023-01-30T13:36:18.347Z,101439.63
2023-01-30T13:38:59.550Z,101462.53
2023-01-30T13:41:29.105Z,101447.88
2023-01-30T13:43:56.049Z,101456.16
2023-01-30T13:46:24.922Z,101454.00
2023-01-30T13:49:05.220Z,101455.09
2023-01-30T13:51:39.074Z,101466.13
2023-01-30T13:54:29.712Z,101468.66
2023-01-30T13:57:20.758Z,101465.88
2023-01-30T14:02:34.814Z,101476.59
2023-01-30T14:05:03.501Z,101475.25
2023-01-30T14:07:30.371Z,101485.47
2023-01-30T14:10:14.564Z,101492.91
2023-01-30T14:12:46.021Z,101488.50
2023-01-30T14:18:06.318Z,101503.66
2023-01-30T14:20:37.134Z,101496.38
2023-01-30T14:23:06.016Z,101498.81
2023-01-30T14:25:34.495Z,101500.75
2023-01-30T14:33:31.026Z,101515.00
2023-01-30T14:38:36.462Z,101508.38
2023-01-30T14:43:48.530Z,101519.69
2023-01-30T14:48:56.018Z,101515.84
2023-01-30T14:51:43.576Z,101525.22
2023-01-30T14:57:22.717Z,101552.78
2023-01-30T15:00:12.098Z,101553.63
2023-01-30T15:02:43.371Z,101550.84
2023-01-30T15:05:13.436Z,101557.19
2023-01-30T15:07:50.552Z,101580.34
2023-01-30T15:10:23.340Z,101569.06
2023-01-30T15:13:01.829Z,101587.53
2023-01-30T15:15:54.581Z,101588.34
2023-01-30T15:18:50.653Z,101591.13
2023-01-30T15:21:43.763Z,101592.22
2023-01-30T15:24:49.220Z,101602.97
2023-01-30T15:27:43.365Z,101611.25
2023-01-30T15:30:46.467Z,101611.00
2023-01-30T15:33:29.400Z,101618.44
2023-01-30T15:35:56.400Z,101627.78
2023-01-30T15:38:32.165Z,101625.03
2023-01-30T15:41:01.453Z,101628.06
2023-01-30T15:43:57.937Z,101617.88
2023-01-30T15:46:52.064Z,101638.00
2023-01-30T15:49:48.082Z,101640.75
2023-01-30T15:52:17.747Z,101640.75
2023-01-30T15:54:50.331Z,101647.09
2023-01-30T15:57:22.127Z,101647.09
2023-01-30T15:59:47.817Z,101649.03
2023-01-30T16:02:18.143Z,101662.56
2023-01-30T16:04:43.828Z,101658.13
2023-01-30T16:07:23.259Z,101671.09
2023-01-30T16:10:06.866Z,101668.31
2023-01-30T16:12:33.148Z,101670.25
2023-01-30T16:15:05.704Z,101672.19
2023-01-30T16:17:38.303Z,101679.63
2023-01-30T16:20:06.864Z,101676.88
2023-01-30T16:22:33.787Z,101689.00
2023-01-30T16:24:59.762Z,101684.31
2023-01-30T16:27:33.615Z,101692.00
2023-01-30T16:30:06.131Z,101707.44
2023-01-30T16:32:33.270Z,101714.03
2023-01-30T16:35:30.982Z,101719.56
2023-01-30T16:37:58.345Z,101726.16
2023-01-30T16:40:30.028Z,101728.94
2023-01-30T16:43:16.285Z,101730.03
2023-01-30T16:46:21.822Z,101731.94
2023-01-30T16:48:48.569Z,101741.88
2023-01-30T16:51:20.091Z,101749.56
2023-01-30T16:53:49.461Z,101741.06
2023-01-30T16:56:16.161Z,101749.34
2023-01-30T16:58:45.195Z,101752.91
2023-01-30T17:01:11.036Z,101757.84
2023-01-30T17:03:40.962Z,101757.84
2023-01-30T17:06:19.502Z,101758.94
2023-01-30T17:11:32.467Z,101769.97
2023-01-30T17:14:21.935Z,101769.97
2023-01-30T17:17:07.257Z,101775.47
2023-01-30T17:19:33.943Z,101784.56
2023-01-30T17:22:02.866Z,101782.91
2023-01-30T17:24:28.543Z,101778.22
2023-01-30T17:26:58.310Z,101791.19
2023-01-30T17:29:42.088Z,101784.84
2023-01-30T17:32:11.141Z,101788.44
2023-01-30T17:34:40.054Z,101801.38
2023-01-30T17:37:08.469Z,101812.69
2023-01-30T17:39:34.016Z,101811.59
2023-01-30T17:41:59.657Z,101813.50
2023-01-30T17:44:25.325Z,101812.69
2023-01-30T17:46:50.980Z,101830.88
2023-01-30T17:49:21.639Z,101828.34
2023-01-30T17:51:48.183Z,101825.59
2023-01-30T17:54:17.377Z,101831.97
2023-01-30T17:56:44.935Z,101841.06
2023-01-30T17:59:15.410Z,101839.38
2023-01-30T18:01:42.345Z,101853.16
2023-01-30T18:04:08.174Z,101855.09
2023-01-30T18:06:34.252Z,101856.78
2023-01-30T18:08:59.918Z,101857.03
2023-01-30T18:11:25.585Z,101852.34
2023-01-30T18:13:51.450Z,101861.44
2023-01-30T18:16:22.871Z,101865.28
2023-01-30T18:18:49.402Z,101867.22
2023-01-30T18:21:16.089Z,101865.28
2023-01-30T18:23:41.948Z,101873.56
2023-01-30T18:26:10.290Z,101875.50
2023-01-30T18:28:35.940Z,101886.53
2023-01-30T18:31:01.656Z,101883.75
2023-01-30T18:33:27.396Z,101884.59
2023-01-30T18:35:53.030Z,101886.53
2023-01-30T18:38:18.704Z,101883.75
2023-01-30T18:40:44.346Z,101896.47
2023-01-30T18:43:10.012Z,101892.03
2023-01-30T18:45:35.734Z,101892.03
2023-01-30T18:48:02.082Z,101889.28
2023-01-30T18:50:27.718Z,101892.28
2023-01-30T18:52:53.374Z,101893.97
2023-01-30T18:55:19.714Z,101892.28
2023-01-30T18:57:45.411Z,101895.63
2023-01-30T19:00:11.495Z,101890.38
2023-01-30T19:02:37.156Z,101897.81
2023-01-30T19:05:02.915Z,101896.72
2023-01-30T19:07:28.577Z,101903.31
2023-01-30T19:09:55.510Z,101902.22
2023-01-30T19:12:42.313Z,101908.84
2023-01-30T19:15:08.353Z,101910.75
2023-01-30T19:17:34.018Z,101907.19
2023-01-30T19:20:01.137Z,101911.59
2023-01-30T19:22:26.799Z,101920.69
2023-01-30T19:24:52.445Z,101915.44
2023-01-30T19:27:18.103Z,101919.88
2023-01-30T19:29:43.751Z,101926.47
2023-01-30T19:32:09.434Z,101928.38
2023-01-30T19:34:35.999Z,101936.63
2023-01-30T19:37:01.660Z,101933.06
2023-01-30T19:39:27.318Z,101940.25
2023-01-30T19:41:53.004Z,101944.06
2023-01-30T19:44:18.659Z,101947.66
2023-01-30T19:46:45.464Z,101959.56
2023-01-30T19:49:11.288Z,101964.22
2023-01-30T19:51:36.955Z,101955.09
2023-01-30T19:54:05.309Z,101951.50
2023-01-30T19:56:31.860Z,101961.72
2023-01-30T19:58:59.035Z,101960.88
2023-01-30T20:01:28.653Z,101960.63
2023-01-30T20:03:55.043Z,101971.66
2023-01-30T20:06:22.725Z,101980.75
2023-01-30T20:08:51.894Z,101987.34
2023-01-30T20:11:18.106Z,101990.13
2023-01-30T20:13:44.937Z,101986.53
2023-01-30T20:16:12.699Z,101995.63
2023-01-30T20:18:39.263Z,101993.97
2023-01-30T20:21:09.203Z,102005.81
2023-01-30T20:23:35.092Z,102006.91
2023-01-30T20:26:05.073Z,102007.75
2023-01-30T20:28:31.199Z,102008.56
2023-01-30T20:30:57.035Z,102011.59
2023-01-30T20:33:23.819Z,102014.34
2023-01-30T20:35:49.954Z,102019.88
2023-01-30T20:38:15.646Z,102025.38
2023-01-30T20:40:41.287Z,102024.53
2023-01-30T20:43:07.219Z,102025.59
2023-01-30T20:45:32.869Z,102020.94
2023-01-30T20:47:58.621Z,102016.28
2023-01-30T20:50:26.574Z,102015.41
2023-01-30T20:52:52.481Z,102019.88
2023-01-30T20:55:18.603Z,102017.34
2023-01-30T20:57:44.500Z,102022.84
2023-01-30T21:00:11.337Z,102020.09
2023-01-30T21:02:37.117Z,102022.00
2023-01-30T21:05:03.020Z,102026.44
2023-01-30T21:07:28.663Z,102023.94
2023-01-30T21:09:54.311Z,102027.53
2023-01-30T21:12:19.982Z,102034.72
2023-01-30T21:14:45.635Z,102037.72
2023-01-30T21:17:11.285Z,102033.03
2023-01-30T21:19:36.967Z,102043.25
2023-01-30T21:22:10.053Z,102051.50
2023-01-30T21:24:38.081Z,102048.75
2023-01-30T21:27:04.009Z,102046.00
2023-01-30T21:29:29.959Z,102042.16
2023-01-30T21:31:56.650Z,102046.00
2023-01-30T21:34:23.071Z,102047.91
2023-01-30T21:37:08.613Z,102049.84
2023-01-30T21:39:54.313Z,102048.75
2023-01-30T21:42:40.441Z,102051.50
2023-01-30T21:45:06.687Z,102059.78
2023-01-30T21:47:32.337Z,102051.78
2023-01-30T21:49:57.996Z,102054.53
2023-01-30T21:52:23.638Z,102058.94
2023-01-30T21:54:49.305Z,102047.09
2023-01-30T21:57:14.937Z,102045.16
2023-01-30T21:59:40.585Z,102054.53
2023-01-30T22:02:06.234Z,102057.28
2023-01-30T22:04:33.571Z,102058.38
2023-01-30T22:06:59.194Z,102067.47
2023-01-30T22:09:24.851Z,102065.56
2023-01-30T22:11:50.744Z,102068.31
2023-01-30T22:14:16.415Z,102064.72
2023-01-30T22:16:42.090Z,102070.22
2023-01-30T22:19:07.826Z,102075.75
2023-01-30T22:21:36.280Z,102065.78
2023-01-30T22:24:02.600Z,102066.63
2023-01-30T22:26:28.340Z,102074.03
2023-01-30T22:28:55.459Z,102057.50
2023-01-30T22:31:22.393Z,102063.03
2023-01-30T22:33:51.045Z,102061.13
2023-01-30T22:36:17.443Z,102068.53
2023-01-30T22:38:44.670Z,102074.03
2023-01-30T22:41:14.855Z,102070.47
2023-01-30T22:43:45.463Z,102075.13
2023-01-30T22:46:11.565Z,102085.06
2023-01-30T22:48:37.374Z,102077.91
2023-01-30T22:51:09.604Z,102076.81
2023-01-30T22:53:38.445Z,102077.91
2023-01-30T22:56:07.356Z,102084.25
2023-01-30T22:58:33.659Z,102089.75
2023-01-30T23:01:04.872Z,102087.00
2023-01-30T23:03:30.536Z,102087.00
2023-01-30T23:05:58.190Z,102081.47
2023-01-30T23:08:25.674Z,102083.41
2023-01-30T23:10:52.181Z,102081.75
2023-01-30T23:13:18.295Z,102077.06
2023-01-30T23:15:46.041Z,102079.81
2023-01-30T23:18:32.966Z,102085.34
2023-01-30T23:20:58.920Z,102090.00
2023-01-30T23:23:24.763Z,102078.97
2023-01-30T23:25:50.428Z,102076.22
2023-01-30T23:28:16.186Z,102083.66
2023-01-30T23:30:41.893Z,102083.66
2023-01-30T23:33:07.595Z,102073.47
2023-01-30T23:35:34.482Z,102084.50
2023-01-30T23:38:15.380Z,102080.06
2023-01-30T23:40:42.159Z,102080.91
2023-01-30T23:43:07.795Z,102082.84
2023-01-30T23:45:34.131Z,102084.50
2023-01-30T23:47:59.925Z,102091.09
2023-01-30T23:50:25.705Z,102095.78
2023-01-30T23:52:51.418Z,102093.84
2023-01-30T23:55:17.649Z,102082.00
2023-01-30T23:57:43.544Z,102088.34
